sensor_id;sensor_type;location;lat;lon;timestamp;pressure;altitude;pressure_sealevel;temperature;humidity
61814;BME280;73144;-35.164;149.098;2024-02-14T00:00:12;93918.63;;;20.27;63.62
61814;BME280;73144;-35.164;149.098;2024-02-14T00:02:41;93915.98;;;19.66;64.63
61814;BME280;73144;-35.164;149.098;2024-02-14T00:05:12;93914.91;;;19.87;64.43
61814;BME280;73144;-35.164;149.098;2024-02-14T00:07:41;93915.87;;;19.46;65.25
61814;BME280;73144;-35.164;149.098;2024-02-14T00:10:11;93921.52;;;19.57;64.35
61814;BME280;73144;-35.164;149.098;2024-02-14T00:12:40;93922.80;;;19.93;64.53
61814;BME280;73144;-35.164;149.098;2024-02-14T00:15:10;93921.31;;;19.99;64.94
61814;BME280;73144;-35.164;149.098;2024-02-14T00:17:38;93914.87;;;20.02;63.47
61814;BME280;73144;-35.164;149.098;2024-02-14T00:20:08;93912.55;;;20.28;64.22
61814;BME280;73144;-35.164;149.098;2024-02-14T00:22:37;93916.11;;;20.16;64.49
61814;BME280;73144;-35.164;149.098;2024-02-14T00:25:06;93912.80;;;20.29;64.24
61814;BME280;73144;-35.164;149.098;2024-02-14T00:27:35;93911.82;;;20.44;62.88
61814;BME280;73144;-35.164;149.098;2024-02-14T00:30:05;93915.14;;;20.92;62.40
61814;BME280;73144;-35.164;149.098;2024-02-14T00:32:35;93911.90;;;20.47;62.38
61814;BME280;73144;-35.164;149.098;2024-02-14T00:35:03;93912.86;;;20.57;61.86
61814;BME280;73144;-35.164;149.098;2024-02-14T00:37:32;93914.64;;;20.52;63.27
61814;BME280;73144;-35.164;149.098;2024-02-14T00:40:02;93918.11;;;20.42;62.56
61814;BME280;73144;-35.164;149.098;2024-02-14T00:42:31;93920.31;;;20.50;61.64
61814;BME280;73144;-35.164;149.098;2024-02-14T00:45:00;93917.03;;;20.35;61.13
61814;BME280;73144;-35.164;149.098;2024-02-14T00:47:29;93917.02;;;20.34;61.28
61814;BME280;73144;-35.164;149.098;2024-02-14T00:49:58;93913.35;;;20.35;61.81
61814;BME280;73144;-35.164;149.098;2024-02-14T00:52:27;93914.03;;;20.37;60.37
61814;BME280;73144;-35.164;149.098;2024-02-14T00:54:57;93920.05;;;20.35;59.73
61814;BME280;73144;-35.164;149.098;2024-02-14T00:57:26;93923.65;;;20.42;60.55
61814;BME280;73144;-35.164;149.098;2024-02-14T00:59:54;93926.07;;;20.35;62.40
61814;BME280;73144;-35.164;149.098;2024-02-14T01:02:25;93926.19;;;20.11;63.63
61814;BME280;73144;-35.164;149.098;2024-02-14T01:04:54;93931.03;;;20.08;64.43
61814;BME280;73144;-35.164;149.098;2024-02-14T01:07:23;93929.10;;;20.49;62.52
61814;BME280;73144;-35.164;149.098;2024-02-14T01:09:53;93928.04;;;19.95;62.85
61814;BME280;73144;-35.164;149.098;2024-02-14T01:12:22;93927.27;;;19.94;62.55
61814;BME280;73144;-35.164;149.098;2024-02-14T01:14:51;93932.30;;;20.01;62.23
61814;BME280;73144;-35.164;149.098;2024-02-14T01:17:20;93932.00;;;20.07;58.28
61814;BME280;73144;-35.164;149.098;2024-02-14T01:19:49;93928.60;;;20.12;58.68
61814;BME280;73144;-35.164;149.098;2024-02-14T01:22:18;93927.83;;;20.27;59.02
61814;BME280;73144;-35.164;149.098;2024-02-14T01:24:47;93928.98;;;20.05;57.99
61814;BME280;73144;-35.164;149.098;2024-02-14T01:27:17;93926.12;;;19.97;57.51
61814;BME280;73144;-35.164;149.098;2024-02-14T01:29:46;93928.20;;;19.96;56.95
61814;BME280;73144;-35.164;149.098;2024-02-14T01:32:15;93924.05;;;19.81;57.86
61814;BME280;73144;-35.164;149.098;2024-02-14T01:34:44;93925.91;;;20.01;58.95
61814;BME280;73144;-35.164;149.098;2024-02-14T01:37:13;93923.52;;;20.31;54.63
61814;BME280;73144;-35.164;149.098;2024-02-14T01:39:42;93920.37;;;20.42;55.87
61814;BME280;73144;-35.164;149.098;2024-02-14T01:42:11;93918.41;;;20.63;55.54
61814;BME280;73144;-35.164;149.098;2024-02-14T01:44:40;93924.06;;;20.77;50.30
61814;BME280;73144;-35.164;149.098;2024-02-14T01:47:10;93924.54;;;20.76;49.13
61814;BME280;73144;-35.164;149.098;2024-02-14T01:49:39;93927.89;;;20.67;51.28
61814;BME280;73144;-35.164;149.098;2024-02-14T01:52:08;93925.42;;;20.75;52.13
61814;BME280;73144;-35.164;149.098;2024-02-14T01:54:38;93929.44;;;20.52;51.78
61814;BME280;73144;-35.164;149.098;2024-02-14T01:57:07;93924.29;;;20.63;52.87
61814;BME280;73144;-35.164;149.098;2024-02-14T01:59:36;93928.23;;;20.68;52.06
61814;BME280;73144;-35.164;149.098;2024-02-14T02:02:06;93928.62;;;20.94;51.95
61814;BME280;73144;-35.164;149.098;2024-02-14T02:04:35;93929.63;;;20.92;53.03
61814;BME280;73144;-35.164;149.098;2024-02-14T02:07:05;93924.05;;;20.67;51.99
61814;BME280;73144;-35.164;149.098;2024-02-14T02:09:33;93931.99;;;20.72;52.10
61814;BME280;73144;-35.164;149.098;2024-02-14T02:12:03;93932.24;;;20.91;51.96
61814;BME280;73144;-35.164;149.098;2024-02-14T02:14:32;93927.08;;;20.68;53.08
61814;BME280;73144;-35.164;149.098;2024-02-14T02:17:01;93923.50;;;21.04;52.91
61814;BME280;73144;-35.164;149.098;2024-02-14T02:19:30;93923.70;;;20.79;53.71
61814;BME280;73144;-35.164;149.098;2024-02-14T02:21:59;93930.36;;;21.01;53.25
61814;BME280;73144;-35.164;149.098;2024-02-14T02:24:28;93929.17;;;20.87;51.36
61814;BME280;73144;-35.164;149.098;2024-02-14T02:26:58;93928.09;;;21.06;50.27
61814;BME280;73144;-35.164;149.098;2024-02-14T02:29:27;93932.28;;;21.16;51.64
61814;BME280;73144;-35.164;149.098;2024-02-14T02:31:55;93928.38;;;21.31;52.63
61814;BME280;73144;-35.164;149.098;2024-02-14T02:34:24;93930.78;;;21.37;52.60
61814;BME280;73144;-35.164;149.098;2024-02-14T02:36:54;93924.30;;;21.31;53.15
61814;BME280;73144;-35.164;149.098;2024-02-14T02:39:23;93929.67;;;21.78;51.75
61814;BME280;73144;-35.164;149.098;2024-02-14T02:41:52;93925.18;;;21.62;52.14
61814;BME280;73144;-35.164;149.098;2024-02-14T02:44:21;93928.45;;;21.86;51.73
61814;BME280;73144;-35.164;149.098;2024-02-14T02:46:50;93926.22;;;22.16;50.80
61814;BME280;73144;-35.164;149.098;2024-02-14T02:49:19;93926.36;;;22.17;51.26
61814;BME280;73144;-35.164;149.098;2024-02-14T02:51:48;93926.46;;;22.09;51.53
61814;BME280;73144;-35.164;149.098;2024-02-14T02:54:17;93930.87;;;22.21;50.91
61814;BME280;73144;-35.164;149.098;2024-02-14T02:56:47;93929.87;;;22.16;50.47
61814;BME280;73144;-35.164;149.098;2024-02-14T02:59:16;93933.96;;;22.17;50.10
61814;BME280;73144;-35.164;149.098;2024-02-14T03:01:45;93926.32;;;22.08;50.31
61814;BME280;73144;-35.164;149.098;2024-02-14T03:04:14;93929.12;;;22.06;49.11
61814;BME280;73144;-35.164;149.098;2024-02-14T03:06:43;93929.72;;;22.34;48.11
61814;BME280;73144;-35.164;149.098;2024-02-14T03:09:13;93927.17;;;22.31;48.35
61814;BME280;73144;-35.164;149.098;2024-02-14T03:11:42;93928.42;;;22.10;48.16
61814;BME280;73144;-35.164;149.098;2024-02-14T03:14:11;93929.63;;;22.34;47.68
61814;BME280;73144;-35.164;149.098;2024-02-14T03:16:40;93929.96;;;22.40;48.62
61814;BME280;73144;-35.164;149.098;2024-02-14T03:19:10;93927.35;;;22.34;49.25
61814;BME280;73144;-35.164;149.098;2024-02-14T03:21:39;93932.55;;;22.45;48.20
61814;BME280;73144;-35.164;149.098;2024-02-14T03:24:08;93931.54;;;22.60;46.40
61814;BME280;73144;-35.164;149.098;2024-02-14T03:26:37;93934.54;;;22.50;46.84
61814;BME280;73144;-35.164;149.098;2024-02-14T03:29:06;93930.80;;;22.64;46.08
61814;BME280;73144;-35.164;149.098;2024-02-14T03:31:35;93929.55;;;22.39;46.77
61814;BME280;73144;-35.164;149.098;2024-02-14T03:34:04;93935.95;;;22.51;46.95
61814;BME280;73144;-35.164;149.098;2024-02-14T03:36:33;93929.79;;;22.60;46.50
61814;BME280;73144;-35.164;149.098;2024-02-14T03:39:06;93929.90;;;22.52;46.14
61814;BME280;73144;-35.164;149.098;2024-02-14T03:41:34;93924.48;;;22.52;46.13
61814;BME280;73144;-35.164;149.098;2024-02-14T03:44:04;93928.49;;;22.28;46.70
61814;BME280;73144;-35.164;149.098;2024-02-14T03:46:33;93931.81;;;22.64;46.32
61814;BME280;73144;-35.164;149.098;2024-02-14T03:49:02;93930.20;;;22.61;45.69
61814;BME280;73144;-35.164;149.098;2024-02-14T03:51:31;93925.09;;;22.64;45.69
61814;BME280;73144;-35.164;149.098;2024-02-14T03:54:00;93930.68;;;22.47;44.75
61814;BME280;73144;-35.164;149.098;2024-02-14T03:56:29;93929.67;;;22.79;44.52
61814;BME280;73144;-35.164;149.098;2024-02-14T03:58:59;93924.70;;;22.57;43.69
61814;BME280;73144;-35.164;149.098;2024-02-14T04:01:29;93917.57;;;22.55;44.58
61814;BME280;73144;-35.164;149.098;2024-02-14T04:03:58;93912.97;;;23.14;44.75
61814;BME280;73144;-35.164;149.098;2024-02-14T04:06:26;93927.75;;;22.69;44.16
61814;BME280;73144;-35.164;149.098;2024-02-14T04:08:55;93918.76;;;22.94;43.61
61814;BME280;73144;-35.164;149.098;2024-02-14T04:11:24;93921.23;;;22.77;43.85
61814;BME280;73144;-35.164;149.098;2024-02-14T04:13:53;93919.05;;;22.79;44.14
61814;BME280;73144;-35.164;149.098;2024-02-14T04:16:22;93917.22;;;23.04;43.72
61814;BME280;73144;-35.164;149.098;2024-02-14T04:18:52;93921.09;;;22.74;44.99
61814;BME280;73144;-35.164;149.098;2024-02-14T04:21:21;93919.32;;;23.31;45.49
61814;BME280;73144;-35.164;149.098;2024-02-14T04:23:50;93917.81;;;23.08;44.09
61814;BME280;73144;-35.164;149.098;2024-02-14T04:26:21;93912.78;;;23.08;44.95
61814;BME280;73144;-35.164;149.098;2024-02-14T04:28:50;93912.35;;;23.16;45.64
61814;BME280;73144;-35.164;149.098;2024-02-14T04:31:19;93913.70;;;23.02;46.24
61814;BME280;73144;-35.164;149.098;2024-02-14T04:33:48;93907.16;;;22.99;44.29
61814;BME280;73144;-35.164;149.098;2024-02-14T04:36:18;93914.47;;;23.09;44.99
61814;BME280;73144;-35.164;149.098;2024-02-14T04:38:48;93916.65;;;23.08;43.85
61814;BME280;73144;-35.164;149.098;2024-02-14T04:41:17;93920.61;;;23.02;44.38
61814;BME280;73144;-35.164;149.098;2024-02-14T04:43:46;93917.49;;;23.00;43.11
61814;BME280;73144;-35.164;149.098;2024-02-14T04:46:15;93913.43;;;23.00;44.33
61814;BME280;73144;-35.164;149.098;2024-02-14T04:48:43;93916.02;;;23.31;43.95
61814;BME280;73144;-35.164;149.098;2024-02-14T04:51:12;93923.01;;;23.06;42.79
61814;BME280;73144;-35.164;149.098;2024-02-14T04:53:42;93922.01;;;22.90;42.82
61814;BME280;73144;-35.164;149.098;2024-02-14T04:56:11;93917.17;;;22.95;43.96
61814;BME280;73144;-35.164;149.098;2024-02-14T04:58:40;93917.70;;;23.21;43.46
61814;BME280;73144;-35.164;149.098;2024-02-14T05:01:09;93913.27;;;23.07;42.39
61814;BME280;73144;-35.164;149.098;2024-02-14T05:03:38;93915.00;;;23.06;43.29
61814;BME280;73144;-35.164;149.098;2024-02-14T05:06:07;93916.48;;;22.88;42.87
61814;BME280;73144;-35.164;149.098;2024-02-14T05:08:36;93915.14;;;23.11;42.47
61814;BME280;73144;-35.164;149.098;2024-02-14T05:11:05;93913.18;;;23.07;43.63
61814;BME280;73144;-35.164;149.098;2024-02-14T05:13:34;93913.71;;;23.06;42.71
61814;BME280;73144;-35.164;149.098;2024-02-14T05:16:04;93909.39;;;23.52;43.11
61814;BME280;73144;-35.164;149.098;2024-02-14T05:18:33;93915.71;;;23.03;43.40
61814;BME280;73144;-35.164;149.098;2024-02-14T05:21:04;93912.09;;;22.95;42.38
61814;BME280;73144;-35.164;149.098;2024-02-14T05:23:34;93907.68;;;22.92;41.67
61814;BME280;73144;-35.164;149.098;2024-02-14T05:26:03;93908.47;;;22.84;42.60
61814;BME280;73144;-35.164;149.098;2024-02-14T05:28:32;93904.18;;;23.00;42.28
61814;BME280;73144;-35.164;149.098;2024-02-14T05:31:03;93906.10;;;23.08;42.46
61814;BME280;73144;-35.164;149.098;2024-02-14T05:33:32;93900.57;;;23.02;41.13
61814;BME280;73144;-35.164;149.098;2024-02-14T05:36:01;93898.50;;;23.13;42.18
61814;BME280;73144;-35.164;149.098;2024-02-14T05:38:30;93900.68;;;23.13;41.65
61814;BME280;73144;-35.164;149.098;2024-02-14T05:40:59;93899.38;;;23.33;42.72
61814;BME280;73144;-35.164;149.098;2024-02-14T05:43:28;93906.91;;;23.10;41.91
61814;BME280;73144;-35.164;149.098;2024-02-14T05:45:57;93903.63;;;22.93;40.97
61814;BME280;73144;-35.164;149.098;2024-02-14T05:48:25;93905.29;;;22.99;41.84
61814;BME280;73144;-35.164;149.098;2024-02-14T05:50:55;93906.01;;;23.04;41.90
61814;BME280;73144;-35.164;149.098;2024-02-14T05:53:24;93908.17;;;23.21;40.54
61814;BME280;73144;-35.164;149.098;2024-02-14T05:55:53;93914.84;;;23.16;40.76
61814;BME280;73144;-35.164;149.098;2024-02-14T05:58:23;93918.28;;;23.29;41.95
61814;BME280;73144;-35.164;149.098;2024-02-14T06:00:52;93915.29;;;23.25;40.37
61814;BME280;73144;-35.164;149.098;2024-02-14T06:03:20;93914.57;;;23.12;40.67
61814;BME280;73144;-35.164;149.098;2024-02-14T06:05:50;93913.35;;;23.29;40.82
61814;BME280;73144;-35.164;149.098;2024-02-14T06:08:19;93920.29;;;23.03;40.04
61814;BME280;73144;-35.164;149.098;2024-02-14T06:10:48;93919.82;;;23.10;40.13
61814;BME280;73144;-35.164;149.098;2024-02-14T06:13:17;93922.04;;;23.06;40.01
61814;BME280;73144;-35.164;149.098;2024-02-14T06:15:47;93920.47;;;22.80;40.30
61814;BME280;73144;-35.164;149.098;2024-02-14T06:18:16;93923.58;;;22.99;41.30
61814;BME280;73144;-35.164;149.098;2024-02-14T06:20:45;93922.66;;;23.08;40.68
61814;BME280;73144;-35.164;149.098;2024-02-14T06:23:14;93930.37;;;22.90;41.19
61814;BME280;73144;-35.164;149.098;2024-02-14T06:25:43;93928.60;;;23.17;39.39
61814;BME280;73144;-35.164;149.098;2024-02-14T06:28:12;93927.55;;;23.06;39.44
61814;BME280;73144;-35.164;149.098;2024-02-14T06:30:41;93935.55;;;23.24;39.86
61814;BME280;73144;-35.164;149.098;2024-02-14T06:33:11;93938.49;;;23.00;39.75
61814;BME280;73144;-35.164;149.098;2024-02-14T06:35:40;93945.38;;;23.20;40.64
61814;BME280;73144;-35.164;149.098;2024-02-14T06:38:09;93948.03;;;23.06;40.07
61814;BME280;73144;-35.164;149.098;2024-02-14T06:40:39;93947.36;;;23.05;40.90
61814;BME280;73144;-35.164;149.098;2024-02-14T06:43:08;93948.93;;;22.88;39.46
61814;BME280;73144;-35.164;149.098;2024-02-14T06:45:37;93956.26;;;23.00;39.54
61814;BME280;73144;-35.164;149.098;2024-02-14T06:48:07;93958.39;;;23.00;40.29
61814;BME280;73144;-35.164;149.098;2024-02-14T06:50:36;93955.72;;;23.01;39.47
61814;BME280;73144;-35.164;149.098;2024-02-14T06:53:06;93956.51;;;23.20;40.37
61814;BME280;73144;-35.164;149.098;2024-02-14T06:55:35;93959.49;;;23.43;40.41
61814;BME280;73144;-35.164;149.098;2024-02-14T06:58:04;93962.07;;;23.14;39.23
61814;BME280;73144;-35.164;149.098;2024-02-14T07:00:33;93963.23;;;23.16;39.58
61814;BME280;73144;-35.164;149.098;2024-02-14T07:03:03;93961.27;;;23.14;38.85
61814;BME280;73144;-35.164;149.098;2024-02-14T07:05:32;93963.00;;;23.11;39.20
61814;BME280;73144;-35.164;149.098;2024-02-14T07:08:01;93967.48;;;23.27;39.26
61814;BME280;73144;-35.164;149.098;2024-02-14T07:10:30;93969.09;;;23.33;38.40
61814;BME280;73144;-35.164;149.098;2024-02-14T07:12:59;93971.63;;;23.33;38.23
61814;BME280;73144;-35.164;149.098;2024-02-14T07:15:28;93976.86;;;23.22;37.50
61814;BME280;73144;-35.164;149.098;2024-02-14T07:17:57;93982.74;;;23.19;38.46
61814;BME280;73144;-35.164;149.098;2024-02-14T07:20:27;93987.11;;;23.24;44.65
61814;BME280;73144;-35.164;149.098;2024-02-14T07:22:56;93992.85;;;22.64;46.58
61814;BME280;73144;-35.164;149.098;2024-02-14T07:25:25;93998.62;;;22.76;47.75
61814;BME280;73144;-35.164;149.098;2024-02-14T07:27:55;94004.09;;;22.51;48.37
61814;BME280;73144;-35.164;149.098;2024-02-14T07:30:24;94002.02;;;22.57;49.76
61814;BME280;73144;-35.164;149.098;2024-02-14T07:32:53;94010.04;;;22.19;49.66
61814;BME280;73144;-35.164;149.098;2024-02-14T07:35:22;94010.56;;;22.07;49.40
61814;BME280;73144;-35.164;149.098;2024-02-14T07:37:51;94021.14;;;22.11;49.60
61814;BME280;73144;-35.164;149.098;2024-02-14T07:40:21;94024.88;;;21.95;50.01
61814;BME280;73144;-35.164;149.098;2024-02-14T07:42:50;94031.86;;;21.74;50.24
61814;BME280;73144;-35.164;149.098;2024-02-14T07:45:19;94037.52;;;21.70;50.32
61814;BME280;73144;-35.164;149.098;2024-02-14T07:47:50;94040.06;;;21.70;50.53
61814;BME280;73144;-35.164;149.098;2024-02-14T07:50:20;94042.01;;;21.56;50.29
61814;BME280;73144;-35.164;149.098;2024-02-14T07:52:49;94040.66;;;21.32;50.53
61814;BME280;73144;-35.164;149.098;2024-02-14T07:55:18;94044.21;;;21.48;50.74
61814;BME280;73144;-35.164;149.098;2024-02-14T07:57:47;94058.13;;;21.28;50.31
61814;BME280;73144;-35.164;149.098;2024-02-14T08:00:17;94070.73;;;21.44;50.28
61814;BME280;73144;-35.164;149.098;2024-02-14T08:02:46;94086.28;;;21.50;49.85
61814;BME280;73144;-35.164;149.098;2024-02-14T08:05:15;94090.01;;;21.28;49.88
61814;BME280;73144;-35.164;149.098;2024-02-14T08:07:46;94098.77;;;21.54;49.38
61814;BME280;73144;-35.164;149.098;2024-02-14T08:10:15;94100.12;;;21.98;48.75
61814;BME280;73144;-35.164;149.098;2024-02-14T08:12:44;94105.67;;;21.82;48.37
61814;BME280;73144;-35.164;149.098;2024-02-14T08:15:14;94110.43;;;21.96;48.09
61814;BME280;73144;-35.164;149.098;2024-02-14T08:17:43;94116.87;;;21.57;48.28
61814;BME280;73144;-35.164;149.098;2024-02-14T08:20:12;94114.61;;;21.28;48.77
61814;BME280;73144;-35.164;149.098;2024-02-14T08:22:41;94118.11;;;20.88;49.41
61814;BME280;73144;-35.164;149.098;2024-02-14T08:25:11;94127.37;;;20.78;49.81
61814;BME280;73144;-35.164;149.098;2024-02-14T08:27:40;94138.05;;;20.76;50.37
61814;BME280;73144;-35.164;149.098;2024-02-14T08:30:10;94141.55;;;20.54;50.89
61814;BME280;73144;-35.164;149.098;2024-02-14T08:32:39;94152.24;;;20.33;51.52
61814;BME280;73144;-35.164;149.098;2024-02-14T08:35:09;94159.58;;;19.96;51.25
61814;BME280;73144;-35.164;149.098;2024-02-14T08:37:38;94173.38;;;19.71;51.38
61814;BME280;73144;-35.164;149.098;2024-02-14T08:40:08;94178.43;;;19.65;51.59
61814;BME280;73144;-35.164;149.098;2024-02-14T08:42:38;94180.41;;;19.50;52.11
61814;BME280;73144;-35.164;149.098;2024-02-14T08:45:08;94179.85;;;19.53;52.02
61814;BME280;73144;-35.164;149.098;2024-02-14T08:47:37;94191.08;;;19.50;52.73
61814;BME280;73144;-35.164;149.098;2024-02-14T08:50:07;94193.18;;;19.03;52.46
61814;BME280;73144;-35.164;149.098;2024-02-14T08:52:37;94202.42;;;19.13;52.42
61814;BME280;73144;-35.164;149.098;2024-02-14T08:55:07;94199.51;;;18.69;52.73
61814;BME280;73144;-35.164;149.098;2024-02-14T08:57:35;94208.16;;;18.65;53.16
61814;BME280;73144;-35.164;149.098;2024-02-14T09:00:06;94206.63;;;18.52;52.79
61814;BME280;73144;-35.164;149.098;2024-02-14T09:02:35;94220.14;;;18.26;52.94
61814;BME280;73144;-35.164;149.098;2024-02-14T09:05:05;94221.45;;;18.27;52.41
61814;BME280;73144;-35.164;149.098;2024-02-14T09:07:34;94225.32;;;18.27;52.86
61814;BME280;73144;-35.164;149.098;2024-02-14T09:10:02;94228.67;;;18.04;52.58
61814;BME280;73144;-35.164;149.098;2024-02-14T09:12:31;94240.55;;;17.98;52.94
61814;BME280;73144;-35.164;149.098;2024-02-14T09:15:00;94242.35;;;18.17;53.17
61814;BME280;73144;-35.164;149.098;2024-02-14T09:17:29;94252.16;;;18.12;52.63
61814;BME280;73144;-35.164;149.098;2024-02-14T09:19:59;94253.09;;;17.56;53.61
61814;BME280;73144;-35.164;149.098;2024-02-14T09:22:28;94261.19;;;17.52;53.84
61814;BME280;73144;-35.164;149.098;2024-02-14T09:24:56;94263.71;;;17.64;53.47
61814;BME280;73144;-35.164;149.098;2024-02-14T09:27:26;94266.20;;;17.58;53.47
61814;BME280;73144;-35.164;149.098;2024-02-14T09:29:54;94268.78;;;17.38;53.71
61814;BME280;73144;-35.164;149.098;2024-02-14T09:32:23;94270.36;;;17.78;53.65
61814;BME280;73144;-35.164;149.098;2024-02-14T09:34:52;94271.37;;;17.56;53.64
61814;BME280;73144;-35.164;149.098;2024-02-14T09:37:21;94281.61;;;17.44;53.36
61814;BME280;73144;-35.164;149.098;2024-02-14T09:39:49;94285.94;;;17.35;53.17
61814;BME280;73144;-35.164;149.098;2024-02-14T09:42:23;94290.10;;;17.29;53.16
61814;BME280;73144;-35.164;149.098;2024-02-14T09:44:58;94298.40;;;17.48;53.29
61814;BME280;73144;-35.164;149.098;2024-02-14T09:47:31;94298.70;;;17.59;53.67
61814;BME280;73144;-35.164;149.098;2024-02-14T09:50:02;94304.48;;;17.17;53.57
61814;BME280;73144;-35.164;149.098;2024-02-14T09:52:33;94308.57;;;17.31;53.78
61814;BME280;73144;-35.164;149.098;2024-02-14T09:55:02;94315.41;;;16.88;53.85
61814;BME280;73144;-35.164;149.098;2024-02-14T09:57:32;94321.98;;;17.45;53.72
61814;BME280;73144;-35.164;149.098;2024-02-14T10:00:02;94324.90;;;17.18;53.22
61814;BME280;73144;-35.164;149.098;2024-02-14T10:02:32;94333.01;;;16.95;53.62
61814;BME280;73144;-35.164;149.098;2024-02-14T10:05:01;94337.47;;;17.25;53.80
61814;BME280;73144;-35.164;149.098;2024-02-14T10:07:30;94346.42;;;17.27;53.66
61814;BME280;73144;-35.164;149.098;2024-02-14T10:10:07;94352.90;;;17.03;53.33
61814;BME280;73144;-35.164;149.098;2024-02-14T10:12:35;94356.24;;;17.02;53.41
61814;BME280;73144;-35.164;149.098;2024-02-14T10:15:05;94362.07;;;17.12;53.81
61814;BME280;73144;-35.164;149.098;2024-02-14T10:17:34;94370.55;;;16.98;53.33
61814;BME280;73144;-35.164;149.098;2024-02-14T10:20:04;94370.31;;;16.79;54.31
61814;BME280;73144;-35.164;149.098;2024-02-14T10:22:35;94375.61;;;16.92;54.21
61814;BME280;73144;-35.164;149.098;2024-02-14T10:25:06;94381.50;;;16.45;54.29
61814;BME280;73144;-35.164;149.098;2024-02-14T10:27:36;94385.57;;;16.67;53.90
61814;BME280;73144;-35.164;149.098;2024-02-14T10:30:07;94393.77;;;16.65;53.97
61814;BME280;73144;-35.164;149.098;2024-02-14T10:32:36;94392.26;;;16.57;53.98
61814;BME280;73144;-35.164;149.098;2024-02-14T10:35:06;94398.72;;;16.34;54.15
61814;BME280;73144;-35.164;149.098;2024-02-14T10:37:35;94396.26;;;16.58;54.04
61814;BME280;73144;-35.164;149.098;2024-02-14T10:40:04;94399.57;;;16.25;53.78
61814;BME280;73144;-35.164;149.098;2024-02-14T10:42:35;94401.75;;;16.31;53.72
61814;BME280;73144;-35.164;149.098;2024-02-14T10:45:04;94413.57;;;16.57;53.40
61814;BME280;73144;-35.164;149.098;2024-02-14T10:47:35;94421.67;;;16.53;53.50
61814;BME280;73144;-35.164;149.098;2024-02-14T10:50:06;94426.13;;;16.42;53.90
61814;BME280;73144;-35.164;149.098;2024-02-14T10:52:36;94425.12;;;16.31;54.14
61814;BME280;73144;-35.164;149.098;2024-02-14T10:55:06;94425.16;;;16.31;53.79
61814;BME280;73144;-35.164;149.098;2024-02-14T10:57:36;94430.61;;;16.32;54.08
61814;BME280;73144;-35.164;149.098;2024-02-14T11:00:08;94434.18;;;16.32;54.17
61814;BME280;73144;-35.164;149.098;2024-02-14T11:02:39;94433.66;;;16.32;54.09
61814;BME280;73144;-35.164;149.098;2024-02-14T11:05:13;94435.85;;;16.45;54.39
61814;BME280;73144;-35.164;149.098;2024-02-14T11:07:46;94438.83;;;16.38;54.47
61814;BME280;73144;-35.164;149.098;2024-02-14T11:10:16;94438.71;;;16.11;54.52
61814;BME280;73144;-35.164;149.098;2024-02-14T11:12:47;94444.23;;;16.13;54.23
61814;BME280;73144;-35.164;149.098;2024-02-14T11:15:19;94446.03;;;16.11;54.70
61814;BME280;73144;-35.164;149.098;2024-02-14T11:17:48;94444.02;;;15.95;54.99
61814;BME280;73144;-35.164;149.098;2024-02-14T11:20:18;94446.50;;;16.47;54.64
61814;BME280;73144;-35.164;149.098;2024-02-14T11:22:56;94445.24;;;16.01;54.49
61814;BME280;73144;-35.164;149.098;2024-02-14T11:25:29;94446.05;;;16.25;54.42
61814;BME280;73144;-35.164;149.098;2024-02-14T11:27:58;94446.72;;;16.45;54.66
61814;BME280;73144;-35.164;149.098;2024-02-14T11:30:35;94453.48;;;16.23;54.25
61814;BME280;73144;-35.164;149.098;2024-02-14T11:33:13;94448.75;;;16.15;54.42
61814;BME280;73144;-35.164;149.098;2024-02-14T11:35:45;94447.86;;;16.07;54.05
61814;BME280;73144;-35.164;149.098;2024-02-14T11:38:14;94445.29;;;15.77;54.07
61814;BME280;73144;-35.164;149.098;2024-02-14T11:40:44;94447.23;;;15.67;54.57
61814;BME280;73144;-35.164;149.098;2024-02-14T11:43:14;94453.59;;;15.97;54.37
61814;BME280;73144;-35.164;149.098;2024-02-14T11:45:43;94444.62;;;15.94;54.51
61814;BME280;73144;-35.164;149.098;2024-02-14T11:48:13;94448.53;;;15.92;54.30
61814;BME280;73144;-35.164;149.098;2024-02-14T11:50:43;94448.52;;;15.69;54.59
61814;BME280;73144;-35.164;149.098;2024-02-14T11:53:14;94453.59;;;15.86;54.61
61814;BME280;73144;-35.164;149.098;2024-02-14T11:55:43;94452.58;;;15.64;54.54
61814;BME280;73144;-35.164;149.098;2024-02-14T11:58:13;94453.99;;;15.64;54.40
61814;BME280;73144;-35.164;149.098;2024-02-14T12:00:43;94455.55;;;15.78;54.53
61814;BME280;73144;-35.164;149.098;2024-02-14T12:03:16;94453.95;;;15.61;54.87
61814;BME280;73144;-35.164;149.098;2024-02-14T12:05:47;94454.11;;;15.62;54.56
61814;BME280;73144;-35.164;149.098;2024-02-14T12:08:17;94450.09;;;15.85;54.54
61814;BME280;73144;-35.164;149.098;2024-02-14T12:10:47;94453.67;;;15.86;54.69
61814;BME280;73144;-35.164;149.098;2024-02-14T12:13:19;94457.38;;;15.74;54.84
61814;BME280;73144;-35.164;149.098;2024-02-14T12:15:49;94459.62;;;15.60;54.75
61814;BME280;73144;-35.164;149.098;2024-02-14T12:18:20;94461.05;;;15.87;54.84
61814;BME280;73144;-35.164;149.098;2024-02-14T12:20:50;94466.13;;;15.60;55.26
61814;BME280;73144;-35.164;149.098;2024-02-14T12:23:20;94464.24;;;15.43;55.20
61814;BME280;73144;-35.164;149.098;2024-02-14T12:25:49;94460.81;;;15.73;55.18
61814;BME280;73144;-35.164;149.098;2024-02-14T12:28:19;94461.29;;;15.75;55.25
61814;BME280;73144;-35.164;149.098;2024-02-14T12:30:49;94466.56;;;15.47;55.50
61814;BME280;73144;-35.164;149.098;2024-02-14T12:33:18;94464.75;;;15.42;55.41
61814;BME280;73144;-35.164;149.098;2024-02-14T12:35:50;94467.70;;;15.49;55.28
61814;BME280;73144;-35.164;149.098;2024-02-14T12:38:21;94468.30;;;15.46;55.03
61814;BME280;73144;-35.164;149.098;2024-02-14T12:40:50;94464.86;;;15.41;54.70